sensor_id;sensor_type;location;lat;lon;timestamp;temperature;humidity
19665;DHT22;9980;51.020;7.772;2023-05-07T00:00:48;17.10;96.30
19665;DHT22;9980;51.020;7.772;2023-05-07T00:03:15;17.10;96.40
19665;DHT22;9980;51.020;7.772;2023-05-07T00:05:41;17.10;96.40
19665;DHT22;9980;51.020;7.772;2023-05-07T00:08:08;17.10;96.50
19665;DHT22;9980;51.020;7.772;2023-05-07T00:10:34;17.00;96.50
19665;DHT22;9980;51.020;7.772;2023-05-07T00:13:00;17.00;96.50
19665;DHT22;9980;51.020;7.772;2023-05-07T00:15:27;17.00;96.70
19665;DHT22;9980;51.020;7.772;2023-05-07T00:17:53;17.00;96.70
19665;DHT22;9980;51.020;7.772;2023-05-07T00:20:19;17.00;96.70
19665;DHT22;9980;51.020;7.772;2023-05-07T00:22:46;17.00;96.70
19665;DHT22;9980;51.020;7.772;2023-05-07T00:25:12;17.00;96.80
19665;DHT22;9980;51.020;7.772;2023-05-07T00:27:38;16.90;96.80
19665;DHT22;9980;51.020;7.772;2023-05-07T00:30:05;16.90;96.90
19665;DHT22;9980;51.020;7.772;2023-05-07T00:32:32;16.90;96.90
19665;DHT22;9980;51.020;7.772;2023-05-07T00:34:58;16.90;97.00
19665;DHT22;9980;51.020;7.772;2023-05-07T00:37:24;16.90;96.90
19665;DHT22;9980;51.020;7.772;2023-05-07T00:39:51;16.90;97.00
19665;DHT22;9980;51.020;7.772;2023-05-07T00:42:17;16.90;97.00
19665;DHT22;9980;51.020;7.772;2023-05-07T00:44:43;16.90;97.10
19665;DHT22;9980;51.020;7.772;2023-05-07T00:47:10;16.90;97.10
19665;DHT22;9980;51.020;7.772;2023-05-07T00:49:44;16.80;97.10
19665;DHT22;9980;51.020;7.772;2023-05-07T00:52:14;16.80;97.30
19665;DHT22;9980;51.020;7.772;2023-05-07T00:54:43;16.80;97.30
19665;DHT22;9980;51.020;7.772;2023-05-07T00:57:09;16.80;97.30
19665;DHT22;9980;51.020;7.772;2023-05-07T00:59:37;16.80;97.40
19665;DHT22;9980;51.020;7.772;2023-05-07T01:02:04;16.80;97.40
19665;DHT22;9980;51.020;7.772;2023-05-07T01:04:30;16.80;97.40
19665;DHT22;9980;51.020;7.772;2023-05-07T01:06:58;16.80;97.40
19665;DHT22;9980;51.020;7.772;2023-05-07T01:09:27;16.80;97.50
19665;DHT22;9980;51.020;7.772;2023-05-07T01:11:55;16.80;97.50
19665;DHT22;9980;51.020;7.772;2023-05-07T01:14:23;16.80;97.50
19665;DHT22;9980;51.020;7.772;2023-05-07T01:16:52;16.70;97.50
19665;DHT22;9980;51.020;7.772;2023-05-07T01:19:22;16.70;97.60
19665;DHT22;9980;51.020;7.772;2023-05-07T01:21:48;16.70;97.50
19665;DHT22;9980;51.020;7.772;2023-05-07T01:24:18;16.70;97.60
19665;DHT22;9980;51.020;7.772;2023-05-07T01:26:44;16.70;97.70
19665;DHT22;9980;51.020;7.772;2023-05-07T01:29:13;16.70;97.80
19665;DHT22;9980;51.020;7.772;2023-05-07T01:31:41;16.70;97.80
19665;DHT22;9980;51.020;7.772;2023-05-07T01:34:11;16.70;97.90
19665;DHT22;9980;51.020;7.772;2023-05-07T01:36:42;16.70;97.80
19665;DHT22;9980;51.020;7.772;2023-05-07T01:39:10;16.70;97.80
19665;DHT22;9980;51.020;7.772;2023-05-07T01:41:37;16.70;97.70
19665;DHT22;9980;51.020;7.772;2023-05-07T01:44:03;16.60;97.70
19665;DHT22;9980;51.020;7.772;2023-05-07T01:46:32;16.70;97.70
19665;DHT22;9980;51.020;7.772;2023-05-07T01:49:00;16.70;97.80
19665;DHT22;9980;51.020;7.772;2023-05-07T01:51:26;16.70;97.80
19665;DHT22;9980;51.020;7.772;2023-05-07T01:53:53;16.60;97.80
19665;DHT22;9980;51.020;7.772;2023-05-07T01:56:20;16.70;97.90
19665;DHT22;9980;51.020;7.772;2023-05-07T01:58:47;16.60;98.00
19665;DHT22;9980;51.020;7.772;2023-05-07T02:01:14;16.60;98.10
19665;DHT22;9980;51.020;7.772;2023-05-07T02:03:41;16.60;98.00
19665;DHT22;9980;51.020;7.772;2023-05-07T02:06:15;16.60;98.10
19665;DHT22;9980;51.020;7.772;2023-05-07T02:08:42;16.60;98.00
19665;DHT22;9980;51.020;7.772;2023-05-07T02:11:10;16.60;98.00
19665;DHT22;9980;51.020;7.772;2023-05-07T02:13:36;16.50;98.10
19665;DHT22;9980;51.020;7.772;2023-05-07T02:16:03;16.60;98.10
19665;DHT22;9980;51.020;7.772;2023-05-07T02:18:29;16.60;98.10
19665;DHT22;9980;51.020;7.772;2023-05-07T02:20:56;16.50;98.00
19665;DHT22;9980;51.020;7.772;2023-05-07T02:23:22;16.50;98.00
19665;DHT22;9980;51.020;7.772;2023-05-07T02:25:49;16.50;98.10
19665;DHT22;9980;51.020;7.772;2023-05-07T02:28:15;16.50;98.10
19665;DHT22;9980;51.020;7.772;2023-05-07T02:30:48;16.50;98.10
19665;DHT22;9980;51.020;7.772;2023-05-07T02:33:14;16.50;98.10
19665;DHT22;9980;51.020;7.772;2023-05-07T02:35:41;16.50;98.20
19665;DHT22;9980;51.020;7.772;2023-05-07T02:38:07;16.40;98.20
19665;DHT22;9980;51.020;7.772;2023-05-07T02:40:34;16.50;98.20
19665;DHT22;9980;51.020;7.772;2023-05-07T02:43:04;16.50;98.30
19665;DHT22;9980;51.020;7.772;2023-05-07T02:45:32;16.40;98.20
19665;DHT22;9980;51.020;7.772;2023-05-07T02:48:00;16.40;98.30
19665;DHT22;9980;51.020;7.772;2023-05-07T02:50:26;16.40;98.30
19665;DHT22;9980;51.020;7.772;2023-05-07T02:52:53;16.40;98.30
19665;DHT22;9980;51.020;7.772;2023-05-07T02:55:20;16.40;98.30
19665;DHT22;9980;51.020;7.772;2023-05-07T02:57:46;16.40;98.30
19665;DHT22;9980;51.020;7.772;2023-05-07T03:00:17;16.40;98.40
19665;DHT22;9980;51.020;7.772;2023-05-07T03:02:53;16.40;98.50
19665;DHT22;9980;51.020;7.772;2023-05-07T03:05:19;16.40;98.50
19665;DHT22;9980;51.020;7.772;2023-05-07T03:07:45;16.40;98.50
19665;DHT22;9980;51.020;7.772;2023-05-07T03:10:14;16.40;98.40
19665;DHT22;9980;51.020;7.772;2023-05-07T03:12:40;16.40;98.40
19665;DHT22;9980;51.020;7.772;2023-05-07T03:15:08;16.30;98.50
19665;DHT22;9980;51.020;7.772;2023-05-07T03:17:36;16.40;98.50
19665;DHT22;9980;51.020;7.772;2023-05-07T03:20:02;16.30;98.60
19665;DHT22;9980;51.020;7.772;2023-05-07T03:22:31;16.30;98.60
19665;DHT22;9980;51.020;7.772;2023-05-07T03:24:57;16.30;98.60
19665;DHT22;9980;51.020;7.772;2023-05-07T03:27:24;16.30;98.60
19665;DHT22;9980;51.020;7.772;2023-05-07T03:29:52;16.30;98.60
19665;DHT22;9980;51.020;7.772;2023-05-07T03:32:18;16.30;98.70
19665;DHT22;9980;51.020;7.772;2023-05-07T03:34:44;16.30;98.80
19665;DHT22;9980;51.020;7.772;2023-05-07T03:37:12;16.20;98.80
19665;DHT22;9980;51.020;7.772;2023-05-07T03:39:38;16.20;98.90
19665;DHT22;9980;51.020;7.772;2023-05-07T03:42:04;16.30;98.90
19665;DHT22;9980;51.020;7.772;2023-05-07T03:44:32;16.20;98.90
19665;DHT22;9980;51.020;7.772;2023-05-07T03:46:59;16.20;98.90
19665;DHT22;9980;51.020;7.772;2023-05-07T03:49:25;16.20;98.80
19665;DHT22;9980;51.020;7.772;2023-05-07T03:51:52;16.20;98.90
19665;DHT22;9980;51.020;7.772;2023-05-07T03:54:18;16.20;98.80
19665;DHT22;9980;51.020;7.772;2023-05-07T03:56:46;16.20;98.80
19665;DHT22;9980;51.020;7.772;2023-05-07T03:59:13;16.20;98.90
19665;DHT22;9980;51.020;7.772;2023-05-07T04:01:40;16.20;99.10
19665;DHT22;9980;51.020;7.772;2023-05-07T04:04:07;16.10;99.10
19665;DHT22;9980;51.020;7.772;2023-05-07T04:06:35;16.20;99.30
19665;DHT22;9980;51.020;7.772;2023-05-07T04:09:01;16.20;99.20
19665;DHT22;9980;51.020;7.772;2023-05-07T04:11:28;16.20;99.20
19665;DHT22;9980;51.020;7.772;2023-05-07T04:13:54;16.20;99.20
19665;DHT22;9980;51.020;7.772;2023-05-07T04:16:22;16.10;99.10
19665;DHT22;9980;51.020;7.772;2023-05-07T04:18:49;16.10;99.20
19665;DHT22;9980;51.020;7.772;2023-05-07T04:21:16;16.10;99.20
19665;DHT22;9980;51.020;7.772;2023-05-07T04:23:47;16.10;99.30
19665;DHT22;9980;51.020;7.772;2023-05-07T04:26:14;16.10;99.30
19665;DHT22;9980;51.020;7.772;2023-05-07T04:28:43;16.20;99.30
19665;DHT22;9980;51.020;7.772;2023-05-07T04:31:09;16.10;99.30
19665;DHT22;9980;51.020;7.772;2023-05-07T04:33:37;16.10;99.40
19665;DHT22;9980;51.020;7.772;2023-05-07T04:36:05;16.20;99.50
19665;DHT22;9980;51.020;7.772;2023-05-07T04:38:37;16.20;99.70
19665;DHT22;9980;51.020;7.772;2023-05-07T04:41:06;16.20;99.70
19665;DHT22;9980;51.020;7.772;2023-05-07T04:43:38;16.20;99.80
19665;DHT22;9980;51.020;7.772;2023-05-07T04:46:04;16.20;99.80
19665;DHT22;9980;51.020;7.772;2023-05-07T04:48:31;16.20;99.80
19665;DHT22;9980;51.020;7.772;2023-05-07T04:50:59;16.20;99.90
19665;DHT22;9980;51.020;7.772;2023-05-07T04:53:25;16.20;99.90
19665;DHT22;9980;51.020;7.772;2023-05-07T04:55:56;16.30;99.90
19665;DHT22;9980;51.020;7.772;2023-05-07T04:58:26;16.30;99.90
19665;DHT22;9980;51.020;7.772;2023-05-07T05:00:53;16.30;99.90
19665;DHT22;9980;51.020;7.772;2023-05-07T05:03:19;16.30;99.90
19665;DHT22;9980;51.020;7.772;2023-05-07T05:05:46;16.40;99.90
19665;DHT22;9980;51.020;7.772;2023-05-07T05:08:15;16.40;99.90
19665;DHT22;9980;51.020;7.772;2023-05-07T05:10:42;16.40;99.90
19665;DHT22;9980;51.020;7.772;2023-05-07T05:13:10;16.50;99.90
19665;DHT22;9980;51.020;7.772;2023-05-07T05:15:38;16.50;99.90
19665;DHT22;9980;51.020;7.772;2023-05-07T05:18:05;16.50;99.90
19665;DHT22;9980;51.020;7.772;2023-05-07T05:20:32;16.60;99.90
19665;DHT22;9980;51.020;7.772;2023-05-07T05:22:58;16.60;99.90
19665;DHT22;9980;51.020;7.772;2023-05-07T05:25:24;16.70;99.90
19665;DHT22;9980;51.020;7.772;2023-05-07T05:27:50;16.70;99.90
19665;DHT22;9980;51.020;7.772;2023-05-07T05:30:17;16.80;99.90
19665;DHT22;9980;51.020;7.772;2023-05-07T05:32:45;16.80;99.90
19665;DHT22;9980;51.020;7.772;2023-05-07T05:35:12;16.90;99.90
19665;DHT22;9980;51.020;7.772;2023-05-07T05:37:39;17.00;99.90
19665;DHT22;9980;51.020;7.772;2023-05-07T05:40:07;17.00;99.90
19665;DHT22;9980;51.020;7.772;2023-05-07T05:42:34;17.10;99.90
19665;DHT22;9980;51.020;7.772;2023-05-07T05:45:00;17.10;99.90
19665;DHT22;9980;51.020;7.772;2023-05-07T05:47:28;17.20;99.90
19665;DHT22;9980;51.020;7.772;2023-05-07T05:49:55;17.20;99.90
19665;DHT22;9980;51.020;7.772;2023-05-07T05:52:21;17.30;99.90
19665;DHT22;9980;51.020;7.772;2023-05-07T05:54:50;17.40;99.90
19665;DHT22;9980;51.020;7.772;2023-05-07T05:57:16;17.40;99.90
19665;DHT22;9980;51.020;7.772;2023-05-07T05:59:44;17.50;99.90
19665;DHT22;9980;51.020;7.772;2023-05-07T06:02:12;17.60;99.90
19665;DHT22;9980;51.020;7.772;2023-05-07T06:04:40;17.60;99.90
19665;DHT22;9980;51.020;7.772;2023-05-07T06:07:06;17.70;99.90
19665;DHT22;9980;51.020;7.772;2023-05-07T06:09:33;17.80;99.90
19665;DHT22;9980;51.020;7.772;2023-05-07T06:12:00;17.80;99.90
19665;DHT22;9980;51.020;7.772;2023-05-07T06:14:28;17.90;99.90
19665;DHT22;9980;51.020;7.772;2023-05-07T06:16:55;17.90;99.80
19665;DHT22;9980;51.020;7.772;2023-05-07T06:19:21;18.00;99.80
19665;DHT22;9980;51.020;7.772;2023-05-07T06:21:52;18.10;99.70
19665;DHT22;9980;51.020;7.772;2023-05-07T06:24:18;18.20;99.80
19665;DHT22;9980;51.020;7.772;2023-05-07T06:26:44;18.30;99.50
19665;DHT22;9980;51.020;7.772;2023-05-07T06:29:12;18.40;99.60
19665;DHT22;9980;51.020;7.772;2023-05-07T06:31:40;18.40;99.50
19665;DHT22;9980;51.020;7.772;2023-05-07T06:34:08;18.50;99.40
19665;DHT22;9980;51.020;7.772;2023-05-07T06:36:37;18.60;99.30
19665;DHT22;9980;51.020;7.772;2023-05-07T06:39:17;18.70;99.10
19665;DHT22;9980;51.020;7.772;2023-05-07T06:41:43;18.80;98.90
19665;DHT22;9980;51.020;7.772;2023-05-07T06:44:21;18.80;98.80
19665;DHT22;9980;51.020;7.772;2023-05-07T06:46:57;19.00;98.60
19665;DHT22;9980;51.020;7.772;2023-05-07T06:49:24;19.10;98.50
19665;DHT22;9980;51.020;7.772;2023-05-07T06:51:50;19.20;98.20
19665;DHT22;9980;51.020;7.772;2023-05-07T06:54:17;19.30;97.80
19665;DHT22;9980;51.020;7.772;2023-05-07T06:56:45;19.30;97.80
19665;DHT22;9980;51.020;7.772;2023-05-07T06:59:11;19.40;97.60
19665;DHT22;9980;51.020;7.772;2023-05-07T07:01:39;19.50;97.60
19665;DHT22;9980;51.020;7.772;2023-05-07T07:04:08;19.60;97.60
19665;DHT22;9980;51.020;7.772;2023-05-07T07:06:35;19.70;97.70
19665;DHT22;9980;51.020;7.772;2023-05-07T07:09:06;19.80;97.70
19665;DHT22;9980;51.020;7.772;2023-05-07T07:11:32;19.90;97.50
19665;DHT22;9980;51.020;7.772;2023-05-07T07:13:59;20.00;97.00
19665;DHT22;9980;51.020;7.772;2023-05-07T07:16:25;20.00;97.00
19665;DHT22;9980;51.020;7.772;2023-05-07T07:18:52;20.10;96.80
19665;DHT22;9980;51.020;7.772;2023-05-07T07:21:19;20.20;96.60
19665;DHT22;9980;51.020;7.772;2023-05-07T07:23:46;20.20;96.30
19665;DHT22;9980;51.020;7.772;2023-05-07T07:26:12;20.30;96.20
19665;DHT22;9980;51.020;7.772;2023-05-07T07:28:43;20.40;96.10
19665;DHT22;9980;51.020;7.772;2023-05-07T07:31:13;20.40;95.90
19665;DHT22;9980;51.020;7.772;2023-05-07T07:33:40;20.50;96.10
19665;DHT22;9980;51.020;7.772;2023-05-07T07:36:07;20.60;96.30
19665;DHT22;9980;51.020;7.772;2023-05-07T07:38:33;20.60;95.80
19665;DHT22;9980;51.020;7.772;2023-05-07T07:41:01;20.70;96.10
19665;DHT22;9980;51.020;7.772;2023-05-07T07:43:28;20.80;95.70
19665;DHT22;9980;51.020;7.772;2023-05-07T07:45:55;20.90;95.90
19665;DHT22;9980;51.020;7.772;2023-05-07T07:48:21;21.00;95.80
19665;DHT22;9980;51.020;7.772;2023-05-07T07:50:49;21.10;95.80
19665;DHT22;9980;51.020;7.772;2023-05-07T07:53:18;21.20;95.50
19665;DHT22;9980;51.020;7.772;2023-05-07T07:55:46;21.30;95.50
19665;DHT22;9980;51.020;7.772;2023-05-07T07:58:15;21.40;95.40
19665;DHT22;9980;51.020;7.772;2023-05-07T08:00:41;21.40;95.10
19665;DHT22;9980;51.020;7.772;2023-05-07T08:03:11;21.50;95.10
19665;DHT22;9980;51.020;7.772;2023-05-07T08:05:43;21.60;94.90
19665;DHT22;9980;51.020;7.772;2023-05-07T08:08:09;21.70;94.70
19665;DHT22;9980;51.020;7.772;2023-05-07T08:10:37;21.80;94.60
19665;DHT22;9980;51.020;7.772;2023-05-07T08:13:10;21.80;94.20
19665;DHT22;9980;51.020;7.772;2023-05-07T08:15:39;21.90;94.10
19665;DHT22;9980;51.020;7.772;2023-05-07T08:18:06;22.00;93.90
19665;DHT22;9980;51.020;7.772;2023-05-07T08:20:33;22.00;94.20
19665;DHT22;9980;51.020;7.772;2023-05-07T08:23:01;22.10;94.30
19665;DHT22;9980;51.020;7.772;2023-05-07T08:25:28;22.20;94.70
19665;DHT22;9980;51.020;7.772;2023-05-07T08:27:57;22.30;94.20
19665;DHT22;9980;51.020;7.772;2023-05-07T08:30:23;22.40;93.90
19665;DHT22;9980;51.020;7.772;2023-05-07T08:32:50;22.50;93.50
19665;DHT22;9980;51.020;7.772;2023-05-07T08:35:17;22.50;93.40
19665;DHT22;9980;51.020;7.772;2023-05-07T08:37:43;22.60;93.20
19665;DHT22;9980;51.020;7.772;2023-05-07T08:40:10;22.70;93.10
19665;DHT22;9980;51.020;7.772;2023-05-07T08:42:41;22.80;93.20
19665;DHT22;9980;51.020;7.772;2023-05-07T08:45:10;22.90;93.10
19665;DHT22;9980;51.020;7.772;2023-05-07T08:47:47;23.00;92.80
19665;DHT22;9980;51.020;7.772;2023-05-07T08:50:20;23.10;92.30
19665;DHT22;9980;51.020;7.772;2023-05-07T08:52:47;23.30;92.50
19665;DHT22;9980;51.020;7.772;2023-05-07T08:55:16;23.40;92.20
19665;DHT22;9980;51.020;7.772;2023-05-07T08:57:43;23.50;92.20
19665;DHT22;9980;51.020;7.772;2023-05-07T09:00:11;23.50;91.70
19665;DHT22;9980;51.020;7.772;2023-05-07T09:02:39;23.60;91.30
19665;DHT22;9980;51.020;7.772;2023-05-07T09:05:07;23.70;91.30
19665;DHT22;9980;51.020;7.772;2023-05-07T09:07:35;23.80;91.20
19665;DHT22;9980;51.020;7.772;2023-05-07T09:10:04;23.90;91.00
19665;DHT22;9980;51.020;7.772;2023-05-07T09:12:32;24.00;90.90
19665;DHT22;9980;51.020;7.772;2023-05-07T09:14:59;24.10;91.20
19665;DHT22;9980;51.020;7.772;2023-05-07T09:17:26;24.20;90.40
19665;DHT22;9980;51.020;7.772;2023-05-07T09:19:53;24.40;90.70
19665;DHT22;9980;51.020;7.772;2023-05-07T09:22:19;24.40;89.60
19665;DHT22;9980;51.020;7.772;2023-05-07T09:24:55;24.50;88.30
19665;DHT22;9980;51.020;7.772;2023-05-07T09:27:25;24.60;88.00
19665;DHT22;9980;51.020;7.772;2023-05-07T09:29:53;24.60;87.80
19665;DHT22;9980;51.020;7.772;2023-05-07T09:32:19;24.60;88.30
19665;DHT22;9980;51.020;7.772;2023-05-07T09:34:46;24.70;87.50
19665;DHT22;9980;51.020;7.772;2023-05-07T09:37:15;24.70;87.90
19665;DHT22;9980;51.020;7.772;2023-05-07T09:39:45;24.80;87.30
19665;DHT22;9980;51.020;7.772;2023-05-07T09:42:15;24.90;86.20
19665;DHT22;9980;51.020;7.772;2023-05-07T09:44:47;24.90;86.30
19665;DHT22;9980;51.020;7.772;2023-05-07T09:47:19;25.00;86.80
19665;DHT22;9980;51.020;7.772;2023-05-07T09:49:55;25.00;87.30
19665;DHT22;9980;51.020;7.772;2023-05-07T09:52:24;25.10;86.30
19665;DHT22;9980;51.020;7.772;2023-05-07T09:54:57;25.20;85.40
19665;DHT22;9980;51.020;7.772;2023-05-07T09:57:27;25.20;84.90
19665;DHT22;9980;51.020;7.772;2023-05-07T09:59:59;25.30;84.70
19665;DHT22;9980;51.020;7.772;2023-05-07T10:02:35;25.40;83.50
19665;DHT22;9980;51.020;7.772;2023-05-07T10:05:03;25.40;82.80
19665;DHT22;9980;51.020;7.772;2023-05-07T10:07:33;25.40;83.60
19665;DHT22;9980;51.020;7.772;2023-05-07T10:10:05;25.50;82.50
19665;DHT22;9980;51.020;7.772;2023-05-07T10:12:37;25.60;82.20
19665;DHT22;9980;51.020;7.772;2023-05-07T10:15:15;25.60;81.40
19665;DHT22;9980;51.020;7.772;2023-05-07T10:17:45;25.70;81.50
19665;DHT22;9980;51.020;7.772;2023-05-07T10:20:13;25.70;80.00
19665;DHT22;9980;51.020;7.772;2023-05-07T10:22:44;25.70;80.20
19665;DHT22;9980;51.020;7.772;2023-05-07T10:25:18;25.80;80.00
19665;DHT22;9980;51.020;7.772;2023-05-07T10:27:50;25.90;79.00
19665;DHT22;9980;51.020;7.772;2023-05-07T10:30:35;26.00;80.50
19665;DHT22;9980;51.020;7.772;2023-05-07T10:33:09;26.10;79.00
19665;DHT22;9980;51.020;7.772;2023-05-07T10:35:45;26.20;78.60
19665;DHT22;9980;51.020;7.772;2023-05-07T10:38:14;26.30;79.90
19665;DHT22;9980;51.020;7.772;2023-05-07T10:40:43;26.30;78.40
19665;DHT22;9980;51.020;7.772;2023-05-07T10:43:13;26.40;80.10
19665;DHT22;9980;51.020;7.772;2023-05-07T10:46:09;26.40;79.30
19665;DHT22;9980;51.020;7.772;2023-05-07T10:51:36;26.50;77.20
19665;DHT22;9980;51.020;7.772;2023-05-07T10:54:19;26.60;76.90
19665;DHT22;9980;51.020;7.772;2023-05-07T10:56:54;26.60;78.40
19665;DHT22;9980;51.020;7.772;2023-05-07T10:59:33;26.60;76.50
19665;DHT22;9980;51.020;7.772;2023-05-07T11:02:08;26.70;74.80
19665;DHT22;9980;51.020;7.772;2023-05-07T11:04:45;26.60;74.20
19665;DHT22;9980;51.020;7.772;2023-05-07T11:08:09;26.60;73.50
19665;DHT22;9980;51.020;7.772;2023-05-07T11:10:57;26.60;74.60
19665;DHT22;9980;51.020;7.772;2023-05-07T11:13:44;26.60;75.60
19665;DHT22;9980;51.020;7.772;2023-05-07T11:16:21;26.50;74.10
19665;DHT22;9980;51.020;7.772;2023-05-07T11:18:57;26.40;73.90
19665;DHT22;9980;51.020;7.772;2023-05-07T11:21:36;26.40;73.40
19665;DHT22;9980;51.020;7.772;2023-05-07T11:24:40;26.30;73.00
19665;DHT22;9980;51.020;7.772;2023-05-07T11:27:10;26.20;72.90
19665;DHT22;9980;51.020;7.772;2023-05-07T11:29:37;26.20;73.70
19665;DHT22;9980;51.020;7.772;2023-05-07T11:32:08;26.10;74.00
19665;DHT22;9980;51.020;7.772;2023-05-07T11:34:40;26.00;74.80
19665;DHT22;9980;51.020;7.772;2023-05-07T11:37:07;26.00;76.20
19665;DHT22;9980;51.020;7.772;2023-05-07T11:39:44;25.90;75.10
19665;DHT22;9980;51.020;7.772;2023-05-07T11:42:34;25.90;73.50
19665;DHT22;9980;51.020;7.772;2023-05-07T11:45:03;25.80;71.90
19665;DHT22;9980;51.020;7.772;2023-05-07T11:47:32;25.80;72.50
19665;DHT22;9980;51.020;7.772;2023-05-07T11:50:07;25.70;73.90
19665;DHT22;9980;51.020;7.772;2023-05-07T11:52:35;25.70;74.60
19665;DHT22;9980;51.020;7.772;2023-05-07T11:55:02;25.70;75.30
19665;DHT22;9980;51.020;7.772;2023-05-07T11:57:33;25.70;75.00
19665;DHT22;9980;51.020;7.772;2023-05-07T12:00:01;25.60;74.10
19665;DHT22;9980;51.020;7.772;2023-05-07T12:02:38;25.60;73.70
19665;DHT22;9980;51.020;7.772;2023-05-07T12:05:04;25.60;75.20
19665;DHT22;9980;51.020;7.772;2023-05-07T12:07:33;25.60;75.40
19665;DHT22;9980;51.020;7.772;2023-05-07T12:10:06;25.60;74.60
19665;DHT22;9980;51.020;7.772;2023-05-07T12:12:41;25.60;74.20
19665;DHT22;9980;51.020;7.772;2023-05-07T12:15:15;25.60;73.60
19665;DHT22;9980;51.020;7.772;2023-05-07T12:17:43;25.60;73.90
19665;DHT22;9980;51.020;7.772;2023-05-07T12:20:10;25.60;74.00
19665;DHT22;9980;51.020;7.772;2023-05-07T12:22:37;25.60;74.00
19665;DHT22;9980;51.020;7.772;2023-05-07T12:25:03;25.60;74.00
19665;DHT22;9980;51.020;7.772;2023-05-07T12:27:30;25.60;74.20
19665;DHT22;9980;51.020;7.772;2023-05-07T12:29:57;25.60;73.70
19665;DHT22;9980;51.020;7.772;2023-05-07T12:32:25;25.60;74.90
19665;DHT22;9980;51.020;7.772;2023-05-07T12:34:51;25.60;74.20
19665;DHT22;9980;51.020;7.772;2023-05-07T12:37:24;25.70;74.60
19665;DHT22;9980;51.020;7.772;2023-05-07T12:40:05;25.70;73.30
19665;DHT22;9980;51.020;7.772;2023-05-07T12:42:41;25.60;74.50
19665;DHT22;9980;51.020;7.772;2023-05-07T12:47:36;25.60;74.50
19665;DHT22;9980;51.020;7.772;2023-05-07T12:50:05;25.60;74.10
19665;DHT22;9980;51.020;7.772;2023-05-07T12:52:33;25.50;73.60
19665;DHT22;9980;51.020;7.772;2023-05-07T12:55:11;25.50;74.50
19665;DHT22;9980;51.020;7.772;2023-05-07T12:57:41;25.40;74.80
19665;DHT22;9980;51.020;7.772;2023-05-07T13:00:10;25.30;75.10
19665;DHT22;9980;51.020;7.772;2023-05-07T13:02:41;25.20;76.30
19665;DHT22;9980;51.020;7.772;2023-05-07T13:05:10;25.10;78.20
19665;DHT22;9980;51.020;7.772;2023-05-07T13:07:37;25.00;79.00
19665;DHT22;9980;51.020;7.772;2023-05-07T13:10:04;24.90;80.50
19665;DHT22;9980;51.020;7.772;2023-05-07T13:12:31;24.80;81.30
19665;DHT22;9980;51.020;7.772;2023-05-07T13:14:57;24.60;82.40
19665;DHT22;9980;51.020;7.772;2023-05-07T13:17:23;24.50;82.70
19665;DHT22;9980;51.020;7.772;2023-05-07T13:19:49;24.40;83.30
19665;DHT22;9980;51.020;7.772;2023-05-07T13:22:16;24.20;84.20
19665;DHT22;9980;51.020;7.772;2023-05-07T13:24:42;24.10;84.10
19665;DHT22;9980;51.020;7.772;2023-05-07T13:27:09;23.90;84.30
19665;DHT22;9980;51.020;7.772;2023-05-07T13:29:35;23.80;85.00
19665;DHT22;9980;51.020;7.772;2023-05-07T13:32:01;23.70;85.60
19665;DHT22;9980;51.020;7.772;2023-05-07T13:34:28;23.60;86.40
19665;DHT22;9980;51.020;7.772;2023-05-07T13:36:54;23.40;87.60
19665;DHT22;9980;51.020;7.772;2023-05-07T13:39:21;23.30;87.70
19665;DHT22;9980;51.020;7.772;2023-05-07T13:41:47;23.20;87.90
19665;DHT22;9980;51.020;7.772;2023-05-07T13:44:13;23.10;88.10
19665;DHT22;9980;51.020;7.772;2023-05-07T13:46:40;23.00;87.60
19665;DHT22;9980;51.020;7.772;2023-05-07T13:49:06;22.90;88.30
19665;DHT22;9980;51.020;7.772;2023-05-07T13:51:32;22.80;88.30
19665;DHT22;9980;51.020;7.772;2023-05-07T13:53:59;22.70;88.20
19665;DHT22;9980;51.020;7.772;2023-05-07T13:56:25;22.60;88.80
19665;DHT22;9980;51.020;7.772;2023-05-07T13:58:51;22.40;89.00
19665;DHT22;9980;51.020;7.772;2023-05-07T14:01:26;22.30;90.10
19665;DHT22;9980;51.020;7.772;2023-05-07T14:03:53;22.20;89.60
19665;DHT22;9980;51.020;7.772;2023-05-07T14:06:19;22.10;89.80
19665;DHT22;9980;51.020;7.772;2023-05-07T14:08:46;22.00;90.00
19665;DHT22;9980;51.020;7.772;2023-05-07T14:11:13;21.90;90.10
19665;DHT22;9980;51.020;7.772;2023-05-07T14:13:39;21.80;90.10
19665;DHT22;9980;51.020;7.772;2023-05-07T14:16:05;21.70;90.40
19665;DHT22;9980;51.020;7.772;2023-05-07T14:18:31;21.70;90.70
19665;DHT22;9980;51.020;7.772;2023-05-07T14:20:59;21.60;90.70
19665;DHT22;9980;51.020;7.772;2023-05-07T14:23:25;21.60;91.20
19665;DHT22;9980;51.020;7.772;2023-05-07T14:25:52;21.60;91.30
19665;DHT22;9980;51.020;7.772;2023-05-07T14:28:19;21.50;91.50
19665;DHT22;9980;51.020;7.772;2023-05-07T14:30:46;21.50;91.70
19665;DHT22;9980;51.020;7.772;2023-05-07T14:33:12;21.40;91.70
19665;DHT22;9980;51.020;7.772;2023-05-07T14:35:38;21.40;92.30
19665;DHT22;9980;51.020;7.772;2023-05-07T14:38:05;21.40;92.40
19665;DHT22;9980;51.020;7.772;2023-05-07T14:40:31;21.40;92.50
19665;DHT22;9980;51.020;7.772;2023-05-07T14:42:57;21.40;92.60
19665;DHT22;9980;51.020;7.772;2023-05-07T14:45:23;21.40;92.90
19665;DHT22;9980;51.020;7.772;2023-05-07T14:47:49;21.40;92.80
19665;DHT22;9980;51.020;7.772;2023-05-07T14:50:16;21.30;92.80
19665;DHT22;9980;51.020;7.772;2023-05-07T14:52:42;21.40;92.80
19665;DHT22;9980;51.020;7.772;2023-05-07T14:55:09;21.40;93.00
19665;DHT22;9980;51.020;7.772;2023-05-07T14:57:35;21.40;93.30
19665;DHT22;9980;51.020;7.772;2023-05-07T15:00:03;21.40;93.20
19665;DHT22;9980;51.020;7.772;2023-05-07T15:02:30;21.40;93.40
19665;DHT22;9980;51.020;7.772;2023-05-07T15:04:57;21.40;93.40
19665;DHT22;9980;51.020;7.772;2023-05-07T15:07:24;21.40;93.50
19665;DHT22;9980;51.020;7.772;2023-05-07T15:09:50;21.40;93.50
19665;DHT22;9980;51.020;7.772;2023-05-07T15:12:17;21.40;93.50
19665;DHT22;9980;51.020;7.772;2023-05-07T15:14:43;21.40;93.50
19665;DHT22;9980;51.020;7.772;2023-05-07T15:17:10;21.50;93.60
19665;DHT22;9980;51.020;7.772;2023-05-07T15:19:36;21.50;93.50
19665;DHT22;9980;51.020;7.772;2023-05-07T15:22:02;21.50;93.70
19665;DHT22;9980;51.020;7.772;2023-05-07T15:24:29;21.50;93.60
19665;DHT22;9980;51.020;7.772;2023-05-07T15:26:56;21.50;93.70
19665;DHT22;9980;51.020;7.772;2023-05-07T15:29:24;21.50;93.80
19665;DHT22;9980;51.020;7.772;2023-05-07T15:31:50;21.50;93.70
19665;DHT22;9980;51.020;7.772;2023-05-07T15:34:18;21.50;93.80
19665;DHT22;9980;51.020;7.772;2023-05-07T15:36:44;21.50;93.80
19665;DHT22;9980;51.020;7.772;2023-05-07T15:39:10;21.50;93.90
19665;DHT22;9980;51.020;7.772;2023-05-07T15:41:36;21.50;94.00
19665;DHT22;9980;51.020;7.772;2023-05-07T15:44:03;21.50;94.00
19665;DHT22;9980;51.020;7.772;2023-05-07T15:46:32;21.40;94.00
19665;DHT22;9980;51.020;7.772;2023-05-07T15:49:02;21.40;94.10
19665;DHT22;9980;51.020;7.772;2023-05-07T15:51:30;21.40;94.20
19665;DHT22;9980;51.020;7.772;2023-05-07T15:53:56;21.40;94.10
19665;DHT22;9980;51.020;7.772;2023-05-07T15:56:23;21.40;94.20
19665;DHT22;9980;51.020;7.772;2023-05-07T15:58:50;21.40;94.20